Time;durP1;ratioP1;P1;durP2;ratioP2;P2;SDS_P1;SDS_P2;PMS_P1;PMS_P2;Temp;Humidity;BMP_temperature;BMP_pressure;BME280_temperature;BME280_humidity;BME280_pressure;Samples;Min_cycle;Max_cycle;Signal;HPM_P1;HPM_P2
2022/08/22 00:27:50;;;;;;;7.53;1.98;;;;;;;18.58;58.13;100040.31;5059257;27;20426;-38
2022/08/22 00:30:18;;;;;;;3.75;1.40;;;;;;;18.56;58.43;100040.34;5023102;28;20107;-47
2022/08/22 00:32:52;;;;;;;5.95;1.83;;;;;;;18.53;58.23;100044.84;5025084;28;20054;-40
2022/08/22 00:35:25;;;;;;;3.22;1.50;;;;;;;18.47;58.12;100044.16;5023206;28;20587;-42
2022/08/22 00:38:15;;;;;;;4.07;2.30;;;;;;;18.33;58.55;100049.91;5021916;28;20068;-45
2022/08/22 00:57:45;;;;;;;3.92;2.47;;;;;;;18.07;59.78;100048.16;5059863;27;20732;-44
2022/08/22 01:16:54;;;;;;;5.25;2.58;;;;;;;18.41;59.91;100028.63;5046601;27;20411;-43
2022/08/22 01:22:37;;;;;;;2.95;1.77;;;;;;;17.95;60.48;100028.44;5054026;27;20394;-46
2022/08/22 01:25:44;;;;;;;3.88;1.75;;;;;;;17.88;60.31;100019.94;5012638;28;20527;-39
2022/08/22 01:28:52;;;;;;;4.60;1.73;;;;;;;17.83;60.32;100027.09;5012358;28;20061;-43
2022/08/22 01:47:52;;;;;;;4.90;3.08;;;;;;;17.55;60.40;100041.09;5044669;27;20920;-41
2022/08/22 01:50:44;;;;;;;6.60;2.97;;;;;;;17.44;60.28;100039.69;5040891;28;20431;-45
2022/08/22 01:56:11;;;;;;;4.18;1.75;;;;;;;17.40;61.12;100032.84;5087722;27;20735;-44
2022/08/22 01:58:52;;;;;;;4.82;2.08;;;;;;;17.44;61.18;100029.22;5056831;28;20048;-42
2022/08/22 02:04:18;;;;;;;5.88;2.50;;;;;;;17.85;61.72;100027.91;5093508;27;20403;-40
2022/08/22 02:07:25;;;;;;;4.72;2.00;;;;;;;17.48;62.03;100029.97;5068481;27;20458;-41
2022/08/22 02:15:46;;;;;;;3.92;1.90;;;;;;;17.34;61.47;100038.25;5123965;27;20375;-40
2022/08/22 02:18:21;;;;;;;3.97;1.92;;;;;;;17.36;61.81;100027.75;5094130;28;20044;-41
2022/08/22 02:21:05;;;;;;;5.00;2.20;;;;;;;17.30;61.59;100020.94;5064010;28;20378;-44
2022/08/22 02:31:39;;;;;;;3.97;1.58;;;;;;;17.13;61.68;100014.47;5045771;28;20401;-42
2022/08/22 02:34:23;;;;;;;2.35;1.48;;;;;;;17.08;62.03;100011.13;5018340;28;20045;-45
2022/08/22 02:37:06;;;;;;;8.85;2.08;;;;;;;17.05;61.95;100011.16;5012897;28;20054;-47
2022/08/22 02:42:36;;;;;;;3.90;2.17;;;;;;;16.90;62.03;99997.69;5065754;28;20378;-39
2022/08/22 02:48:13;;;;;;;7.43;3.95;;;;;;;16.90;62.08;99992.44;5030378;28;20949;-44
2022/08/22 02:50:57;;;;;;;7.00;3.30;;;;;;;16.86;61.82;100000.41;5025068;28;20042;-41
2022/08/22 02:53:43;;;;;;;6.85;3.65;;;;;;;16.77;62.37;100006.78;5025529;28;20064;-45
2022/08/22 02:56:17;;;;;;;7.90;3.83;;;;;;;16.78;62.46;100003.25;5010262;28;20042;-44
2022/08/22 02:59:08;;;;;;;7.78;4.22;;;;;;;16.74;62.37;99999.88;5016615;28;20053;-40
2022/08/22 03:01:40;;;;;;;6.78;3.95;;;;;;;16.72;62.06;100003.44;5023630;28;20050;-41
2022/08/22 03:07:30;;;;;;;6.50;2.10;;;;;;;16.56;61.54;99988.19;5055250;28;20406;-43
2022/08/22 03:23:12;;;;;;;6.78;2.75;;;;;;;16.51;62.86;99983.09;5051937;27;20738;-40
2022/08/22 03:25:50;;;;;;;6.28;3.33;;;;;;;16.46;62.90;99982.38;5066346;28;20045;-39
2022/08/22 03:28:25;;;;;;;6.15;3.42;;;;;;;16.44;63.17;99969.34;5044439;28;20045;-37
2022/08/22 03:31:10;;;;;;;7.53;3.42;;;;;;;16.32;63.22;99980.16;5069121;28;20497;-38
2022/08/22 03:33:37;;;;;;;7.18;3.47;;;;;;;16.35;62.85;99973.97;5070075;28;20045;-37
2022/08/22 04:14:05;;;;;;;7.32;3.22;;;;;;;15.83;63.96;99983.13;5042861;27;20401;-43
2022/08/22 04:17:12;;;;;;;6.20;2.97;;;;;;;15.77;63.93;99971.09;5023405;28;20038;-43
2022/08/22 04:27:52;;;;;;;8.85;3.85;;;;;;;15.72;63.56;99969.50;5076301;27;20383;-43
2022/08/22 04:35:41;;;;;;;7.22;3.22;;;;;;;15.88;64.57;99981.25;5027666;27;20413;-44
2022/08/22 04:41:00;;;;;;;8.13;3.53;;;;;;;15.69;64.65;99988.72;5038712;27;20398;-45
2022/08/22 04:43:41;;;;;;;7.60;2.97;;;;;;;15.62;64.77;99995.84;5022014;28;21297;-43
2022/08/22 04:51:30;;;;;;;10.07;2.63;;;;;;;15.59;65.10;99990.69;5064898;28;20402;-44
2022/08/22 04:54:15;;;;;;;8.80;2.92;;;;;;;15.59;65.58;99985.47;5040539;28;20465;-41
2022/08/22 04:57:07;;;;;;;7.95;2.80;;;;;;;15.58;65.07;99988.13;5040934;28;20471;-44
2022/08/22 04:59:34;;;;;;;7.22;2.95;;;;;;;15.66;65.30;99991.38;5042974;28;20112;-41
2022/08/22 05:02:06;;;;;;;7.10;2.30;;;;;;;15.70;64.97;99986.97;5034241;28;20096;-44
2022/08/22 05:04:45;;;;;;;6.90;2.90;;;;;;;15.65;65.19;99989.69;5036589;28;20074;-40
2022/08/22 05:07:18;;;;;;;6.65;3.00;;;;;;;15.68;64.64;99982.63;5044739;28;20053;-41
2022/08/22 05:09:52;;;;;;;10.07;3.13;;;;;;;15.67;64.79;99975.69;5044340;28;20056;-42
2022/08/22 05:12:29;;;;;;;6.65;2.17;;;;;;;15.68;64.65;99974.78;5038030;28;20107;-45
2022/08/22 05:15:04;;;;;;;10.55;2.63;;;;;;;15.67;64.95;99967.84;5037645;28;20477;-40
2022/08/22 05:17:37;;;;;;;6.32;2.10;;;;;;;15.66;64.32;99962.66;5036329;28;20045;-42
2022/08/22 05:20:11;;;;;;;9.82;2.33;;;;;;;15.64;64.18;99957.50;5032898;28;20048;-44
2022/08/22 05:22:44;;;;;;;7.95;2.70;;;;;;;15.62;64.64;99958.44;5017334;28;20053;-45
2022/08/22 05:25:17;;;;;;;8.48;2.67;;;;;;;15.61;64.76;99952.38;5034899;28;20492;-41
2022/08/22 05:27:49;;;;;;;6.55;2.28;;;;;;;15.60;64.52;99958.47;5036995;28;20052;-42
2022/08/22 05:30:26;;;;;;;7.03;2.58;;;;;;;15.58;64.29;99955.06;5035930;28;20140;-44
2022/08/22 05:33:31;;;;;;;8.30;2.20;;;;;;;15.50;64.83;99949.16;5037628;28;20053;-43
2022/08/22 05:36:05;;;;;;;10.23;2.67;;;;;;;15.53;64.96;99946.47;5033831;28;20049;-40
2022/08/22 05:38:40;;;;;;;9.40;2.95;;;;;;;15.51;64.71;99940.44;5044442;28;20045;-43
2022/08/22 05:41:10;;;;;;;10.13;3.13;;;;;;;15.49;64.34;99948.31;5041483;28;20076;-40
2022/08/22 05:43:42;;;;;;;7.25;2.78;;;;;;;15.47;64.86;99944.00;5041730;28;20396;-40
2022/08/22 05:46:18;;;;;;;6.45;2.60;;;;;;;15.44;65.33;99944.97;5037488;28;20048;-41
2022/08/22 05:48:56;;;;;;;7.35;2.85;;;;;;;15.46;64.95;99952.72;5035708;28;20079;-42
2022/08/22 05:51:34;;;;;;;10.43;2.90;;;;;;;15.47;65.15;99954.47;5036825;28;20049;-39
2022/08/22 05:54:13;;;;;;;11.00;3.40;;;;;;;15.50;65.49;99946.56;5040070;28;20679;-39
2022/08/22 05:56:46;;;;;;;5.03;2.53;;;;;;;15.55;65.62;99940.31;5029557;28;20053;-39
2022/08/22 05:59:22;;;;;;;10.52;2.88;;;;;;;15.56;65.65;99941.16;5032821;28;20077;-43
2022/08/22 06:02:15;;;;;;;9.98;3.05;;;;;;;15.50;66.13;99942.19;5026343;28;20049;-42
2022/08/22 06:05:02;;;;;;;6.45;2.90;;;;;;;15.52;65.81;99947.34;5027721;28;20058;-41
2022/08/22 06:10:16;;;;;;;7.85;3.45;;;;;;;15.65;66.20;99948.78;5055322;28;20401;-40
2022/08/22 06:12:54;;;;;;;8.00;2.72;;;;;;;15.69;65.98;99949.53;5019839;28;20083;-40
2022/08/22 06:15:32;;;;;;;10.40;3.50;;;;;;;15.76;65.84;99955.47;5023199;28;20061;-40
2022/08/22 06:18:04;;;;;;;11.50;3.15;;;;;;;15.82;65.79;99939.66;5019566;28;20052;-42
2022/08/22 06:20:38;;;;;;;8.80;3.45;;;;;;;15.87;65.99;99936.91;5019928;28;20045;-42
2022/08/22 06:23:07;;;;;;;7.05;2.75;;;;;;;15.91;65.86;99939.38;5020795;28;20684;-39
2022/08/22 06:25:37;;;;;;;11.30;3.85;;;;;;;15.99;66.15;99935.75;5013426;28;20064;-45
2022/08/22 06:28:08;;;;;;;12.80;3.47;;;;;;;16.05;66.09;99940.81;5024255;28;20394;-44
2022/08/22 06:30:38;;;;;;;8.30;3.28;;;;;;;16.12;66.14;99941.50;5024844;28;20549;-40
2022/08/22 06:33:11;;;;;;;11.23;3.88;;;;;;;16.18;66.35;99936.94;5022948;28;20437;-43
2022/08/22 06:38:33;;;;;;;8.00;3.33;;;;;;;16.32;66.88;99933.94;5008942;28;20045;-42
2022/08/22 06:41:05;;;;;;;8.52;3.70;;;;;;;16.40;67.07;99936.34;5014040;28;20133;-39
2022/08/22 06:43:38;;;;;;;7.80;3.55;;;;;;;16.51;66.93;99937.81;5015536;28;20461;-41
2022/08/22 06:46:06;;;;;;;11.30;3.83;;;;;;;16.65;67.59;99946.09;5020982;28;20041;-43
2022/08/22 06:48:34;;;;;;;7.93;3.60;;;;;;;17.14;67.24;99945.53;5023878;28;20038;-43
2022/08/22 06:51:05;;;;;;;8.00;4.00;;;;;;;17.90;67.97;99939.53;5019926;28;20054;-39
2022/08/22 06:53:43;;;;;;;7.95;3.55;;;;;;;18.73;67.15;99941.81;5014238;28;20046;-40
2022/08/22 06:56:21;;;;;;;9.07;3.78;;;;;;;19.08;65.07;99949.25;5020311;28;20176;-41
2022/08/22 06:58:52;;;;;;;7.38;3.20;;;;;;;19.49;65.73;99954.56;5023921;28;20247;-43
2022/08/22 07:01:25;;;;;;;9.52;3.05;;;;;;;20.14;64.47;99958.03;5015770;28;20046;-39
2022/08/22 07:03:57;;;;;;;6.22;2.70;;;;;;;20.67;63.09;99953.03;5019290;28;20053;-42
2022/08/22 07:06:49;;;;;;;7.68;2.95;;;;;;;20.99;62.77;99953.31;5022732;28;20085;-39
2022/08/22 07:09:23;;;;;;;4.88;2.63;;;;;;;21.43;61.63;99954.69;5022517;28;20046;-45
2022/08/22 07:11:52;;;;;;;8.98;2.83;;;;;;;21.99;60.87;99956.34;5020787;28;20064;-41
2022/08/22 07:14:27;;;;;;;4.30;2.40;;;;;;;22.58;60.63;99952.38;5013186;28;20121;-45
2022/08/22 07:16:59;;;;;;;7.68;2.67;;;;;;;23.10;59.26;99948.63;5017206;28;20371;-45
2022/08/22 07:22:13;;;;;;;7.07;2.10;;;;;;;24.09;57.19;99956.16;5050178;27;20406;-41
2022/08/22 07:24:50;;;;;;;4.93;1.83;;;;;;;24.55;56.73;99963.06;5003833;28;20441;-44
2022/08/22 07:30:16;;;;;;;7.82;2.20;;;;;;;25.44;54.78;99975.97;5026912;27;20405;-42
2022/08/22 07:33:01;;;;;;;7.32;2.28;;;;;;;25.93;54.02;99977.13;5021691;28;20046;-38
2022/08/22 07:35:57;;;;;;;6.95;2.08;;;;;;;26.45;52.67;99976.28;5024286;28;20084;-43
2022/08/22 07:38:41;;;;;;;3.80;1.42;;;;;;;26.86;52.06;99974.25;5024461;28;20045;-40
2022/08/22 07:44:02;;;;;;;4.18;2.47;;;;;;;27.22;50.43;99970.84;5080997;27;20396;-38
2022/08/22 07:46:35;;;;;;;6.00;2.33;;;;;;;27.14;49.67;99966.06;5064345;28;20045;-42
2022/08/22 07:49:21;;;;;;;11.40;3.00;;;;;;;26.80;50.30;99956.09;5064564;28;20052;-44
2022/08/22 07:51:53;;;;;;;4.90;2.65;;;;;;;26.46;50.16;99961.16;5067296;28;20037;-43
2022/08/22 07:54:26;;;;;;;6.97;2.85;;;;;;;26.06;49.86;99965.66;5058570;28;20056;-46
2022/08/22 07:59:32;;;;;;;6.57;1.95;;;;;;;25.71;50.38;99945.06;5024440;27;20419;-41
2022/08/22 08:02:00;;;;;;;7.22;1.48;;;;;;;25.46;50.10;99946.72;5023859;28;20046;-39
2022/08/22 08:04:32;;;;;;;7.13;1.38;;;;;;;25.15;50.27;99934.53;5023240;28;20509;-39
2022/08/22 08:07:07;;;;;;;4.35;1.42;;;;;;;24.85;50.86;99930.28;5019412;28;20053;-38
2022/08/22 08:09:39;;;;;;;4.95;1.98;;;;;;;25.22;51.36;99934.13;5015063;28;20502;-42
2022/08/22 08:12:09;;;;;;;2.58;0.85;;;;;;;25.84;50.29;99923.84;5010516;28;20061;-46
2022/08/22 08:14:40;;;;;;;4.50;1.08;;;;;;;26.28;49.89;99919.06;5014660;28;20045;-43
2022/08/22 08:17:20;;;;;;;3.55;1.35;;;;;;;26.71;48.47;99916.94;5022128;28;20053;-42
2022/08/22 08:19:49;;;;;;;4.80;1.20;;;;;;;27.17;48.13;99924.19;5021438;28;20049;-41
2022/08/22 08:22:24;;;;;;;5.10;1.60;;;;;;;27.42;47.56;99930.28;5016284;28;20046;-45
2022/08/22 08:24:54;;;;;;;8.30;1.10;;;;;;;27.40;46.94;99934.88;5017319;28;20049;-44
2022/08/22 08:30:20;;;;;;;5.13;1.40;;;;;;;26.81;47.27;99926.75;5023195;28;20053;-43
2022/08/22 08:32:53;;;;;;;4.75;1.30;;;;;;;26.73;47.72;99925.63;5011667;28;20054;-46
2022/08/22 08:35:46;;;;;;;4.20;1.33;;;;;;;26.68;47.47;99933.94;5016824;28;20050;-41
2022/08/22 08:38:38;;;;;;;6.28;1.35;;;;;;;26.52;47.50;99928.88;5018840;28;20041;-40
2022/08/22 08:46:46;;;;;;;6.72;2.90;;;;;;;27.04;47.84;99936.66;5044673;27;20406;-44
2022/08/22 08:52:41;;;;;;;3.95;1.20;;;;;;;27.64;46.65;99931.34;5075125;27;20393;-41
2022/08/22 09:00:28;;;;;;;5.70;1.42;;;;;;;27.50;45.65;99939.50;5058105;28;20388;-45
2022/08/22 09:08:41;;;;;;;6.18;2.25;;;;;;;27.03;44.96;99932.31;5063544;28;20396;-51
2022/08/22 09:11:47;;;;;;;3.92;2.42;;;;;;;26.89;45.52;99931.53;5055874;28;20110;-49
2022/08/22 09:56:09;;;;;;;5.15;1.88;;;;;;;28.88;40.84;99922.56;5041619;27;20778;-42
2022/08/22 10:06:50;;;;;;;5.18;1.27;;;;;;;28.93;40.61;99911.53;5104886;27;20397;-50
2022/08/22 10:09:24;;;;;;;4.20;1.55;;;;;;;29.24;41.12;99908.97;5080553;28;20044;-50
2022/08/22 10:12:19;;;;;;;5.13;1.50;;;;;;;29.47;40.18;99909.69;5096270;28;20608;-42
2022/08/22 10:17:32;;;;;;;7.53;2.70;;;;;;;29.45;37.21;99900.13;5032245;28;20402;-45
2022/08/22 10:20:21;;;;;;;4.03;1.95;;;;;;;29.36;37.95;99891.09;5023889;28;20042;-50
2022/08/22 10:25:39;;;;;;;7.40;1.48;;;;;;;29.33;37.62;99888.69;5043084;27;20401;-43
2022/08/22 10:33:38;;;;;;;6.20;1.90;;;;;;;28.77;36.75;99886.13;5082133;28;20390;-42
2022/08/22 10:36:09;;;;;;;5.72;1.25;;;;;;;28.77;37.23;99887.97;5028114;28;20048;-43
2022/08/22 10:49:27;;;;;;;6.88;1.30;;;;;;;29.56;36.21;99880.56;5047472;27;20393;-38
2022/08/22 10:52:02;;;;;;;3.33;0.93;;;;;;;29.64;35.91;99878.09;5025887;28;20050;-41
2022/08/22 10:54:49;;;;;;;4.88;1.95;;;;;;;29.72;36.49;99872.91;5021195;28;20042;-44
2022/08/22 11:02:38;;;;;;;3.50;2.60;;;;;;;29.94;35.38;99867.53;5029600;27;20390;-46
2022/08/22 11:05:31;;;;;;;4.20;1.95;;;;;;;29.70;35.08;99871.38;5017031;28;20046;-49
2022/08/22 11:13:26;;;;;;;5.32;1.48;;;;;;;29.61;32.95;99878.34;5101154;27;20393;-48
2022/08/22 11:26:59;;;;;;;4.07;1.88;;;;;;;29.70;34.57;99861.56;5023640;27;20886;-44
2022/08/22 11:30:06;;;;;;;4.32;1.95;;;;;;;29.78;34.71;99860.03;5012365;28;20057;-45
2022/08/22 11:33:08;;;;;;;6.15;1.85;;;;;;;29.93;34.27;99856.03;5011867;28;20788;-49
2022/08/22 11:35:52;;;;;;;3.97;1.70;;;;;;;29.87;33.41;99849.41;5011615;28;20053;-42
2022/08/22 11:41:13;;;;;;;3.88;0.95;;;;;;;29.48;34.15;99862.53;5035067;28;20390;-47
2022/08/22 11:43:56;;;;;;;2.92;1.00;;;;;;;29.46;34.22;99848.47;5025992;28;20049;-41
2022/08/22 11:57:10;;;;;;;4.72;0.82;;;;;;;29.64;34.16;99835.38;5059356;28;20375;-46
2022/08/22 12:02:20;;;;;;;3.42;1.00;;;;;;;29.44;35.00;99821.94;5033465;27;20712;-43
2022/08/22 12:04:54;;;;;;;2.45;0.88;;;;;;;29.25;34.91;99826.19;5024930;28;20045;-39
2022/08/22 12:10:11;;;;;;;3.35;1.05;;;;;;;29.30;36.01;99816.94;5044417;27;20392;-41
2022/08/22 12:15:38;;;;;;;5.63;2.20;;;;;;;29.27;36.42;99811.88;5064806;28;20947;-43
2022/08/22 12:32:13;;;;;;;1.98;0.40;;;;;;;28.67;38.35;99810.63;5043876;28;20432;-41
2022/08/22 12:37:28;;;;;;;3.40;1.30;;;;;;;29.32;37.55;99820.31;5086393;27;20387;-43
2022/08/22 12:46:10;;;;;;;1.17;0.30;;;;;;;29.33;38.28;99816.69;5061778;28;20866;-42
2022/08/22 12:48:52;;;;;;;;;;;;;;;29.24;38.17;99818.31;5022110;28;20049;-43
2022/08/22 12:54:26;;;;;;;2.00;0.52;;;;;;;29.39;38.17;99821.50;5064471;28;20379;-44
2022/08/22 12:57:27;;;;;;;1.33;0.75;;;;;;;29.35;39.05;99826.22;5021125;28;20053;-46
2022/08/22 13:00:08;;;;;;;1.38;1.20;;;;;;;29.35;38.83;99818.22;5044401;28;20393;-41
2022/08/22 13:02:38;;;;;;;0.80;0.73;;;;;;;29.37;38.35;99818.09;5045799;28;20064;-42
2022/08/22 13:05:15;;;;;;;1.42;0.63;;;;;;;29.33;38.46;99814.00;5025454;28;20054;-44
2022/08/22 13:07:53;;;;;;;0.90;0.50;;;;;;;29.32;39.24;99820.31;5015143;28;20121;-43
2022/08/22 13:10:49;;;;;;;1.48;0.73;;;;;;;29.20;39.17;99820.41;5012157;28;20132;-47
2022/08/22 13:24:13;;;;;;;2.33;1.60;;;;;;;28.85;39.97;99810.88;5046556;28;20877;-45
2022/08/22 13:26:55;;;;;;;1.70;1.40;;;;;;;28.84;40.10;99811.88;5044975;28;20049;-48
2022/08/22 13:29:27;;;;;;;1.77;1.67;;;;;;;28.79;39.72;99809.56;5043111;28;20128;-40
2022/08/22 13:32:19;;;;;;;3.05;1.77;;;;;;;28.66;40.06;99804.44;5043036;28;20033;-44
2022/08/22 13:34:54;;;;;;;3.15;1.77;;;;;;;28.63;40.64;99802.00;5043553;28;20056;-44
2022/08/22 13:37:27;;;;;;;2.75;1.70;;;;;;;28.63;40.65;99803.84;5045258;28;20049;-39
2022/08/22 13:40:00;;;;;;;5.57;2.60;;;;;;;28.52;40.11;99802.06;5045418;28;20045;-44
2022/08/22 13:42:30;;;;;;;4.28;2.28;;;;;;;28.52;40.64;99796.72;5043031;28;20056;-41
2022/08/22 13:45:03;;;;;;;9.15;1.92;;;;;;;28.56;40.90;99801.69;5045930;28;20060;-50
2022/08/22 13:47:34;;;;;;;4.55;2.45;;;;;;;28.54;40.54;99794.78;5044014;28;20072;-41
2022/08/22 13:50:13;;;;;;;4.95;3.03;;;;;;;28.43;40.58;99798.34;5045388;28;20084;-45
2022/08/22 13:52:47;;;;;;;2.65;2.28;;;;;;;28.28;40.48;99774.69;5042656;28;20576;-43
2022/08/22 13:58:02;;;;;;;2.45;1.30;;;;;;;28.07;41.54;99774.59;5055149;28;20398;-43
2022/08/22 14:03:24;;;;;;;3.80;1.67;;;;;;;28.44;41.25;99771.56;5047917;28;20396;-44
2022/08/22 14:05:57;;;;;;;5.70;1.42;;;;;;;28.23;41.86;99766.16;5020584;28;20359;-42
2022/08/22 14:08:45;;;;;;;4.25;1.15;;;;;;;28.33;41.62;99775.13;5022404;28;20425;-46
2022/08/22 14:11:27;;;;;;;2.78;1.77;;;;;;;28.19;41.72;99768.25;5009973;28;20561;-42
2022/08/22 14:13:58;;;;;;;4.28;0.90;;;;;;;28.13;40.90;99765.25;5021162;28;20459;-44
2022/08/22 14:19:12;;;;;;;1.65;0.60;;;;;;;27.78;41.67;99761.81;5037669;28;20410;-41
2022/08/22 14:29:52;;;;;;;2.80;1.73;;;;;;;28.10;42.07;99761.03;5060257;28;20374;-47
2022/08/22 14:35:01;;;;;;;3.38;0.63;;;;;;;28.09;42.17;99754.00;5040167;27;20409;-42
2022/08/22 14:37:33;;;;;;;2.75;0.85;;;;;;;27.95;41.96;99757.78;5021819;28;20052;-40
2022/08/22 14:40:11;;;;;;;2.45;0.73;;;;;;;27.89;42.31;99752.97;5023632;28;20072;-45
2022/08/22 14:45:45;;;;;;;5.82;1.55;;;;;;;27.84;42.36;99745.34;5058813;27;20371;-45
2022/08/22 14:48:20;;;;;;;1.85;1.08;;;;;;;27.77;42.43;99752.13;5025163;28;20477;-43
2022/08/22 14:51:02;;;;;;;3.42;1.02;;;;;;;27.52;42.88;99751.41;5023298;28;20506;-42
2022/08/22 14:53:32;;;;;;;2.83;0.85;;;;;;;27.43;42.60;99742.34;5024588;28;20141;-45
2022/08/22 14:58:48;;;;;;;2.45;2.05;;;;;;;27.27;43.49;99754.19;5045960;28;20402;-39
2022/08/22 15:01:19;;;;;;;2.83;1.73;;;;;;;27.29;43.55;99751.41;5020272;28;20046;-43
2022/08/22 15:03:54;;;;;;;3.53;2.08;;;;;;;27.14;43.25;99754.28;5022307;28;20045;-38
2022/08/22 15:06:34;;;;;;;2.42;1.73;;;;;;;27.06;43.28;99751.38;5017141;28;20054;-45
2022/08/22 15:09:05;;;;;;;3.20;1.85;;;;;;;27.02;43.74;99753.41;5003355;28;20046;-44
2022/08/22 15:11:35;;;;;;;4.45;1.70;;;;;;;26.93;43.92;99757.63;5003080;28;20128;-39
2022/08/22 15:16:45;;;;;;;1.60;0.93;;;;;;;26.75;45.45;99761.69;5044916;27;20403;-39
2022/08/22 15:22:37;;;;;;;2.50;0.80;;;;;;;26.54;47.08;99762.31;5093671;27;20884;-45
2022/08/22 15:27:46;;;;;;;5.50;1.45;;;;;;;26.47;48.03;99772.53;5058419;27;20372;-47
2022/08/22 15:30:16;;;;;;;4.05;1.20;;;;;;;26.43;48.43;99776.41;5008770;28;20151;-46
2022/08/22 15:32:47;;;;;;;3.78;1.65;;;;;;;26.46;49.19;99773.53;5021408;28;20100;-45
2022/08/22 15:35:27;;;;;;;2.58;1.50;;;;;;;26.47;49.61;99766.41;5024289;28;20383;-42
2022/08/22 15:38:03;;;;;;;4.13;1.58;;;;;;;26.53;50.18;99760.63;5021797;28;20114;-47
2022/08/22 15:45:49;;;;;;;2.65;2.03;;;;;;;26.63;49.61;99751.00;5076110;27;20389;-39
2022/08/22 15:48:37;;;;;;;2.60;1.63;;;;;;;26.52;50.51;99748.31;5042044;28;20053;-43
2022/08/22 15:51:09;;;;;;;2.55;1.80;;;;;;;26.53;50.48;99744.69;5026429;28;20045;-41
2022/08/22 15:56:26;;;;;;;3.72;1.38;;;;;;;26.88;50.98;99748.31;5014632;28;20426;-46
2022/08/22 16:28:21;;;;;;;3.92;1.98;;;;;;;25.50;51.00;99725.50;5066850;27;20394;-47
2022/08/22 16:31:30;;;;;;;4.60;1.73;;;;;;;25.33;50.96;99727.53;5025889;28;20056;-47
2022/08/22 17:00:37;;;;;;;2.88;1.17;;;;;;;25.08;51.75;99713.34;5084458;27;20370;-44
2022/08/22 17:08:56;;;;;;;2.85;1.10;;;;;;;24.97;51.73;99708.81;5058951;28;20403;-43
2022/08/22 17:22:56;;;;;;;2.80;1.77;;;;;;;24.87;52.36;99708.59;5066011;27;20415;-45
2022/08/22 17:42:01;;;;;;;3.50;1.17;;;;;;;24.69;52.63;99715.09;5076061;27;20396;-40
2022/08/22 17:55:04;;;;;;;3.17;1.42;;;;;;;24.53;53.19;99724.06;5053170;27;20394;-48
2022/08/22 17:57:43;;;;;;;3.65;1.45;;;;;;;24.45;52.85;99726.38;5022928;28;20798;-46
2022/08/22 18:00:29;;;;;;;4.65;1.70;;;;;;;24.34;53.31;99721.78;5021707;28;20053;-43
2022/08/22 18:08:20;;;;;;;8.18;3.47;;;;;;;24.12;53.76;99724.03;5063246;27;20422;-43
2022/08/22 18:11:12;;;;;;;4.90;2.55;;;;;;;24.01;53.72;99735.28;5057018;28;20136;-45
2022/08/22 18:13:55;;;;;;;4.55;2.38;;;;;;;23.92;54.38;99727.09;5054226;28;20048;-41
2022/08/22 18:16:45;;;;;;;7.25;2.90;;;;;;;23.82;53.89;99727.69;5063774;28;20051;-46
2022/08/22 18:27:39;;;;;;;4.07;1.88;;;;;;;23.68;55.19;99725.06;5061341;28;20385;-48
2022/08/22 18:53:53;;;;;;;3.45;1.90;;;;;;;23.26;56.52;99736.38;5025853;28;20382;-44
2022/08/22 18:56:57;;;;;;;4.38;2.22;;;;;;;23.08;56.62;99728.66;5041821;28;20558;-42
2022/08/22 19:05:15;;;;;;;3.67;2.08;;;;;;;23.38;57.29;99744.53;5029988;27;20399;-41
2022/08/22 19:08:21;;;;;;;4.35;2.45;;;;;;;23.05;57.27;99744.69;5012331;28;20442;-42
2022/08/22 19:16:42;;;;;;;3.05;1.67;;;;;;;22.96;57.35;99750.50;5079246;27;20477;-40
2022/08/22 19:19:16;;;;;;;3.38;1.40;;;;;;;22.99;57.62;99750.31;5036731;28;20590;-41
2022/08/22 19:22:23;;;;;;;3.13;1.50;;;;;;;22.88;57.52;99760.66;5036260;28;20057;-44
2022/08/22 19:25:14;;;;;;;1.90;1.30;;;;;;;22.78;58.40;99750.66;5033739;28;20110;-45
2022/08/22 19:27:44;;;;;;;4.18;1.67;;;;;;;22.81;58.24;99745.19;5049669;28;20053;-43
2022/08/22 19:41:05;;;;;;;2.30;1.00;;;;;;;22.70;59.16;99758.19;5018186;28;20407;-42
2022/08/22 19:43:36;;;;;;;2.10;0.82;;;;;;;22.62;59.44;99768.34;5000385;28;20062;-41
2022/08/22 19:46:07;;;;;;;4.22;1.00;;;;;;;22.54;59.18;99763.44;4985672;28;20499;-44
2022/08/22 19:48:46;;;;;;;1.55;0.63;;;;;;;22.44;59.70;99755.22;4987718;28;20482;-45
2022/08/22 20:04:47;;;;;;;4.18;0.70;;;;;;;22.21;60.43;99762.66;5077243;27;20398;-41
2022/08/22 20:15:31;;;;;;;5.57;1.77;;;;;;;22.58;60.34;99760.59;5098219;27;20385;-41
2022/08/22 20:17:58;;;;;;;3.92;2.70;;;;;;;22.28;61.20;99756.09;5060042;28;20111;-41
2022/08/22 20:21:01;;;;;;;5.20;2.53;;;;;;;22.11;61.42;99759.69;5061864;28;20103;-43
2022/08/22 20:23:29;;;;;;;;;;;;;;;21.96;61.30;99756.13;5057926;28;20052;-42
2022/08/22 20:25:57;;;;;;;2.65;2.22;;;;;;;22.03;61.05;99754.84;5055989;28;19974;-42
2022/08/22 20:31:09;;;;;;;2.88;0.95;;;;;;;21.99;61.44;99750.69;5069405;27;20402;-41
2022/08/22 20:33:41;;;;;;;1.92;0.70;;;;;;;21.96;61.55;99748.22;5025041;28;20069;-40
2022/08/22 20:36:16;;;;;;;3.60;1.67;;;;;;;21.86;61.98;99749.63;5026134;28;20058;-44
2022/08/22 20:39:07;;;;;;;2.60;1.00;;;;;;;21.81;62.15;99742.84;5024220;28;20141;-51
2022/08/22 20:41:48;;;;;;;2.65;1.00;;;;;;;21.79;61.81;99734.16;5022317;28;20038;-46
2022/08/22 20:47:02;;;;;;;2.47;1.05;;;;;;;21.78;62.13;99731.63;5033880;27;20418;-48
2022/08/22 20:49:36;;;;;;;5.85;1.63;;;;;;;21.78;61.91;99734.25;4999890;28;20061;-45
2022/08/22 20:52:07;;;;;;;2.20;0.75;;;;;;;21.77;62.31;99741.31;4998181;28;20046;-45
2022/08/22 20:54:36;;;;;;;1.95;0.73;;;;;;;21.76;62.16;99744.03;4999431;28;20046;-42
2022/08/22 20:59:52;;;;;;;6.43;1.55;;;;;;;21.74;62.76;99749.38;5046268;27;20413;-45
2022/08/22 21:04:59;;;;;;;2.53;2.00;;;;;;;21.72;62.49;99753.88;5041179;28;20413;-43
2022/08/22 21:16:13;;;;;;;2.10;0.80;;;;;;;21.70;62.70;99755.72;5040641;28;20391;-44
2022/08/22 21:18:43;;;;;;;3.03;0.93;;;;;;;21.74;62.79;99757.28;4997287;28;20489;-47
2022/08/22 21:23:50;;;;;;;4.03;2.72;;;;;;;21.73;62.94;99752.91;5025697;27;20395;-45
2022/08/22 21:31:43;;;;;;;3.17;1.25;;;;;;;21.64;63.01;99756.03;5055886;27;20402;-40
2022/08/22 21:34:14;;;;;;;2.17;1.23;;;;;;;21.64;63.29;99750.75;5028565;28;20177;-39
2022/08/22 21:36:42;;;;;;;2.63;1.90;;;;;;;21.63;62.81;99757.84;5041024;28;20551;-44
2022/08/22 21:39:18;;;;;;;3.95;2.05;;;;;;;21.61;63.03;99746.50;5038436;28;20049;-45
2022/08/22 21:41:51;;;;;;;3.05;1.20;;;;;;;21.62;63.24;99747.38;5024657;28;20547;-40
2022/08/22 21:44:37;;;;;;;3.63;1.35;;;;;;;21.53;63.35;99749.56;5030791;28;20417;-45
2022/08/22 21:50:24;;;;;;;3.53;1.80;;;;;;;21.46;63.39;99745.56;5037084;27;20413;-43
2022/08/22 21:55:32;;;;;;;2.50;1.50;;;;;;;21.48;63.12;99751.59;5044800;27;20390;-42
2022/08/22 22:03:35;;;;;;;3.30;1.77;;;;;;;21.36;63.82;99742.56;5060105;28;20390;-43
2022/08/22 22:06:05;;;;;;;4.65;2.33;;;;;;;21.36;64.23;99749.63;5025631;28;20108;-44
2022/08/22 22:08:32;;;;;;;2.75;1.58;;;;;;;21.34;63.69;99748.84;5025250;28;20477;-47
2022/08/22 22:11:02;;;;;;;2.92;2.03;;;;;;;21.35;63.93;99750.56;5024708;28;20046;-43
2022/08/22 22:13:33;;;;;;;3.35;1.67;;;;;;;21.34;64.21;99754.13;5019765;28;20058;-41
2022/08/22 22:16:00;;;;;;;3.15;1.48;;;;;;;21.34;64.19;99759.38;5026189;28;20359;-46
2022/08/22 22:18:31;;;;;;;3.00;1.55;;;;;;;21.36;64.30;99760.16;5025637;28;20108;-49
2022/08/22 22:20:58;;;;;;;3.85;1.40;;;;;;;21.36;64.03;99762.78;5025190;28;20057;-39
2022/08/22 22:23:26;;;;;;;3.13;1.98;;;;;;;21.36;63.97;99768.03;5025004;28;20622;-43
2022/08/22 22:25:55;;;;;;;3.50;1.48;;;;;;;21.36;63.99;99762.78;5024425;28;20052;-43
2022/08/22 22:28:27;;;;;;;3.25;1.67;;;;;;;21.33;64.70;99761.16;5025656;28;20049;-43
2022/08/22 22:30:54;;;;;;;3.58;1.30;;;;;;;21.29;64.77;99760.50;5008149;28;20049;-44
2022/08/22 22:33:24;;;;;;;2.10;1.40;;;;;;;21.29;64.47;99768.38;5021776;28;20053;-41
2022/08/22 22:35:54;;;;;;;4.45;1.63;;;;;;;21.29;64.86;99763.13;5025467;28;20041;-44
2022/08/22 22:38:21;;;;;;;;;;;;;;;21.12;65.07;99765.75;5024935;28;20081;-45
2022/08/22 22:40:50;;;;;;;;;;;;;;;21.05;65.16;99755.53;5021647;28;19928;-45
2022/08/22 22:43:16;;;;;;;2.70;1.38;;;;;;;21.23;64.70;99762.56;5025085;28;19925;-42
2022/08/22 22:45:43;;;;;;;3.97;1.45;;;;;;;21.24;64.72;99769.56;5025412;28;20061;-39
2022/08/22 22:48:10;;;;;;;2.60;1.50;;;;;;;21.22;64.93;99767.00;5025689;28;20046;-39
2022/08/22 22:50:43;;;;;;;3.55;1.35;;;;;;;21.21;64.78;99765.28;5025279;28;20056;-45